Time;durP1;ratioP1;P1;durP2;ratioP2;P2;SDS_P1;SDS_P2;PMS_P1;PMS_P2;Temp;Humidity;BMP_temperature;BMP_pressure;BME280_temperature;BME280_humidity;BME280_pressure;Samples;Min_cycle;Max_cycle;Signal;HPM_P1;HPM_P2
2020/12/16 00:00:09;;;;;;;29.63;17.73;;;6.70;1.00;;;;;;5052529;28;20579;-59
2020/12/16 00:02:36;;;;;;;26.17;18.05;;;6.60;1.00;;;;;;5052458;28;20976;-58
2020/12/16 00:05:03;;;;;;;25.90;16.85;;;6.60;1.00;;;;;;5051338;28;20190;-59
2020/12/16 00:07:30;;;;;;;27.58;18.02;;;6.70;1.00;;;;;;5052704;28;20253;-59
2020/12/16 00:09:55;;;;;;;22.15;16.60;;;6.70;1.00;;;;;;5044504;28;20284;-59
2020/12/16 00:12:21;;;;;;;24.33;17.13;;;6.70;1.00;;;;;;5034548;28;20657;-59
2020/12/16 00:14:47;;;;;;;28.60;17.70;;;6.70;1.00;;;;;;5052017;28;20206;-60
2020/12/16 00:17:13;;;;;;;25.57;18.73;;;6.70;1.00;;;;;;5051114;28;20725;-59
2020/12/16 00:19:40;;;;;;;22.52;16.58;;;6.70;1.00;;;;;;5050851;28;20721;-60
2020/12/16 00:22:06;;;;;;;26.90;18.63;;;6.70;1.00;;;;;;5052268;28;20782;-60
2020/12/16 00:24:32;;;;;;;25.10;17.13;;;6.70;1.00;;;;;;5055128;28;20283;-59
2020/12/16 00:26:57;;;;;;;26.07;18.07;;;6.70;1.00;;;;;;5055901;28;20193;-59
2020/12/16 00:29:23;;;;;;;25.97;18.57;;;6.70;1.00;;;;;;5042415;28;20186;-59
2020/12/16 00:31:48;;;;;;;23.80;16.83;;;6.70;1.00;;;;;;5050461;28;20228;-58
2020/12/16 00:34:14;;;;;;;26.20;18.73;;;6.70;1.00;;;;;;5050843;28;20190;-57
2020/12/16 00:36:41;;;;;;;23.20;16.23;;;6.70;1.00;;;;;;5039604;28;20312;-58
2020/12/16 00:39:08;;;;;;;23.23;17.13;;;6.70;1.00;;;;;;5045022;28;20186;-59
2020/12/16 00:41:34;;;;;;;24.02;17.95;;;6.70;1.00;;;;;;5064783;28;20191;-59
2020/12/16 00:44:01;;;;;;;24.37;18.30;;;6.70;1.00;;;;;;5050471;28;20226;-59
2020/12/16 00:46:27;;;;;;;24.58;17.90;;;6.70;1.00;;;;;;5043759;28;21000;-58
2020/12/16 00:48:52;;;;;;;28.63;19.27;;;6.70;1.00;;;;;;5051419;28;20191;-59
2020/12/16 00:51:18;;;;;;;26.23;18.73;;;6.70;1.00;;;;;;5050687;28;20187;-58
2020/12/16 00:53:44;;;;;;;25.27;18.83;;;6.70;1.00;;;;;;5050398;28;20184;-58
2020/12/16 00:56:09;;;;;;;26.33;18.67;;;6.60;1.00;;;;;;5051237;28;20210;-60
2020/12/16 00:58:35;;;;;;;25.90;18.17;;;6.60;1.00;;;;;;5034151;28;20177;-60
2020/12/16 01:01:01;;;;;;;28.33;17.83;;;6.60;1.00;;;;;;5050795;28;20209;-61
2020/12/16 01:03:26;;;;;;;25.70;18.83;;;6.60;1.00;;;;;;5050964;28;20592;-55
2020/12/16 01:05:52;;;;;;;30.37;20.10;;;6.60;1.00;;;;;;5051270;28;20221;-60
2020/12/16 01:08:17;;;;;;;26.30;18.57;;;6.60;1.00;;;;;;5046353;28;20190;-60
2020/12/16 01:10:43;;;;;;;27.80;19.20;;;6.60;1.00;;;;;;5051270;28;20182;-59
2020/12/16 01:13:09;;;;;;;27.40;19.30;;;6.60;1.00;;;;;;5050564;28;20206;-58
2020/12/16 01:15:35;;;;;;;26.17;19.50;;;6.60;1.00;;;;;;5050874;28;20460;-60
2020/12/16 01:18:00;;;;;;;28.27;18.87;;;6.60;1.00;;;;;;5050570;28;20266;-60
2020/12/16 01:20:26;;;;;;;27.17;19.40;;;6.60;1.00;;;;;;5043878;28;20205;-56
2020/12/16 01:22:51;;;;;;;30.40;20.20;;;6.60;1.00;;;;;;5049771;28;20231;-59
2020/12/16 01:25:19;;;;;;;28.50;20.20;;;6.60;1.00;;;;;;5058507;28;20214;-56
2020/12/16 01:27:45;;;;;;;26.88;19.90;;;6.60;1.00;;;;;;5046397;28;20190;-58
2020/12/16 01:30:11;;;;;;;28.73;18.97;;;6.60;1.00;;;;;;5048506;28;20610;-59
2020/12/16 01:32:37;;;;;;;29.30;20.13;;;6.60;1.00;;;;;;5052414;28;20190;-60
2020/12/16 01:35:07;;;;;;;28.42;20.27;;;6.50;1.00;;;;;;5049402;28;20293;-60
2020/12/16 01:37:34;;;;;;;27.27;19.85;;;6.60;1.00;;;;;;5050416;28;20576;-60
2020/12/16 01:40:00;;;;;;;28.60;19.95;;;6.60;1.00;;;;;;5049923;28;20182;-60
2020/12/16 01:42:26;;;;;;;29.90;20.87;;;6.60;1.00;;;;;;5050822;28;20269;-61
2020/12/16 01:44:52;;;;;;;31.30;20.60;;;6.60;1.00;;;;;;5050223;28;20503;-59
2020/12/16 01:47:18;;;;;;;29.13;20.77;;;6.60;1.00;;;;;;5050162;28;20577;-60
2020/12/16 01:49:45;;;;;;;29.58;21.00;;;6.50;1.00;;;;;;5044416;28;20920;-59
2020/12/16 01:52:18;;;;;;;30.30;20.95;;;6.60;1.00;;;;;;5053974;28;20197;-60
2020/12/16 01:54:45;;;;;;;34.72;20.95;;;6.50;1.00;;;;;;5049813;28;20209;-60
2020/12/16 01:57:12;;;;;;;28.60;20.95;;;6.50;1.00;;;;;;5031694;28;20178;-61
2020/12/16 01:59:39;;;;;;;29.38;20.35;;;6.50;1.00;;;;;;5049755;28;20221;-59
2020/12/16 02:02:08;;;;;;;30.30;20.10;;;6.60;1.00;;;;;;5044021;28;20264;-60
2020/12/16 02:04:38;;;;;;;28.30;20.30;;;6.60;1.00;;;;;;5048984;28;20221;-60
2020/12/16 02:07:09;;;;;;;30.63;20.15;;;6.60;1.00;;;;;;5049911;28;20189;-58
2020/12/16 02:09:39;;;;;;;30.50;20.48;;;6.60;1.00;;;;;;5046680;28;20185;-57
2020/12/16 02:12:27;;;;;;;28.73;19.52;;;6.60;1.00;;;;;;5050234;28;20208;-59
2020/12/16 02:14:53;;;;;;;33.03;21.17;;;6.60;1.00;;;;;;5043747;28;20539;-60
2020/12/16 02:17:19;;;;;;;30.57;20.73;;;6.60;1.00;;;;;;5048479;28;20187;-60
2020/12/16 02:19:54;;;;;;;34.30;22.23;;;6.60;1.00;;;;;;5045819;28;20182;-59
2020/12/16 02:22:20;;;;;;;29.10;20.10;;;6.60;1.00;;;;;;5048221;28;20671;-60
2020/12/16 02:25:12;;;;;;;33.07;21.00;;;6.60;1.00;;;;;;5048551;28;20238;-59
2020/12/16 02:27:40;;;;;;;31.10;21.05;;;6.60;1.00;;;;;;5043745;28;20515;-58
2020/12/16 02:30:07;;;;;;;32.42;21.45;;;6.60;1.00;;;;;;5049009;28;20243;-60
2020/12/16 02:32:33;;;;;;;28.67;20.73;;;6.60;1.00;;;;;;5057181;28;20186;-60
2020/12/16 02:34:59;;;;;;;31.37;21.07;;;6.50;1.00;;;;;;5037916;28;20202;-58
2020/12/16 02:37:25;;;;;;;31.38;21.10;;;6.50;1.00;;;;;;5049568;28;20272;-59
2020/12/16 02:39:51;;;;;;;32.77;20.50;;;6.40;1.00;;;;;;5048175;28;20261;-60
2020/12/16 02:42:22;;;;;;;33.40;22.00;;;6.50;1.00;;;;;;5046314;28;20302;-59
2020/12/16 02:44:48;;;;;;;31.42;22.27;;;6.40;1.00;;;;;;5048927;28;20317;-60
2020/12/16 02:47:13;;;;;;;33.13;21.67;;;6.40;1.00;;;;;;5048792;28;20189;-61
2020/12/16 02:49:39;;;;;;;35.47;21.77;;;6.40;1.00;;;;;;5048678;28;20189;-59
2020/12/16 02:52:05;;;;;;;34.13;22.37;;;6.40;1.00;;;;;;5048250;28;20263;-60
2020/12/16 02:54:30;;;;;;;32.10;20.67;;;6.40;1.00;;;;;;5049092;28;20185;-60
2020/12/16 02:56:56;;;;;;;32.50;22.13;;;6.40;1.00;;;;;;5049286;28;20190;-60
2020/12/16 02:59:26;;;;;;;30.20;21.63;;;6.40;1.00;;;;;;5048561;28;20258;-60
2020/12/16 03:01:53;;;;;;;32.35;20.15;;;6.40;1.00;;;;;;5042710;28;20240;-60
2020/12/16 03:04:20;;;;;;;31.23;19.63;;;6.40;1.00;;;;;;5048856;28;20188;-60
2020/12/16 03:06:48;;;;;;;32.80;20.45;;;6.40;1.00;;;;;;5048739;28;20289;-60
2020/12/16 03:09:15;;;;;;;36.00;22.50;;;6.50;1.00;;;;;;5047597;28;20188;-59
2020/12/16 03:11:41;;;;;;;31.17;20.83;;;6.50;1.00;;;;;;5041565;28;20185;-60
2020/12/16 03:14:07;;;;;;;31.23;20.92;;;6.50;1.00;;;;;;5049095;28;20178;-60
2020/12/16 03:16:32;;;;;;;32.40;21.30;;;6.50;1.00;;;;;;5049204;28;20210;-59
2020/12/16 03:18:58;;;;;;;29.03;19.40;;;6.50;1.00;;;;;;5048314;28;20460;-60
2020/12/16 03:21:24;;;;;;;36.50;24.73;;;6.50;1.00;;;;;;5048418;28;20193;-58
2020/12/16 03:23:51;;;;;;;32.67;20.95;;;6.50;1.00;;;;;;5041470;28;20199;-59
2020/12/16 03:26:17;;;;;;;31.45;19.83;;;6.50;1.00;;;;;;5045211;28;20699;-60
2020/12/16 03:28:43;;;;;;;31.27;20.60;;;6.50;1.00;;;;;;5060039;28;20209;-60
2020/12/16 03:31:10;;;;;;;30.70;20.50;;;6.50;1.00;;;;;;5047680;28;20611;-60
2020/12/16 03:33:35;;;;;;;32.97;21.02;;;6.50;1.00;;;;;;5047192;28;20457;-60
2020/12/16 03:36:01;;;;;;;31.43;21.20;;;6.50;1.00;;;;;;5047256;28;20196;-59
2020/12/16 03:38:27;;;;;;;31.87;21.50;;;6.50;1.00;;;;;;5036735;28;20191;-60
2020/12/16 03:40:52;;;;;;;35.87;22.50;;;6.50;1.00;;;;;;5047527;28;20176;-60
2020/12/16 03:43:18;;;;;;;30.40;20.30;;;6.50;1.00;;;;;;5048684;28;20714;-60
2020/12/16 03:45:44;;;;;;;34.97;21.10;;;6.60;1.00;;;;;;5038237;28;20933;-59
2020/12/16 03:48:09;;;;;;;37.07;22.00;;;6.60;1.00;;;;;;5026121;28;20182;-59
2020/12/16 03:50:35;;;;;;;30.97;21.20;;;6.60;1.00;;;;;;5028175;28;20222;-57
2020/12/16 03:53:00;;;;;;;35.37;21.73;;;6.50;1.00;;;;;;5027228;28;20197;-59
2020/12/16 03:55:26;;;;;;;35.53;20.97;;;6.50;1.00;;;;;;5028308;28;20214;-58
2020/12/16 03:57:51;;;;;;;28.10;20.67;;;6.50;1.00;;;;;;5028071;28;20282;-60
2020/12/16 04:00:17;;;;;;;32.10;20.10;;;6.50;1.00;;;;;;5028222;28;20257;-60
2020/12/16 04:02:43;;;;;;;29.90;21.97;;;6.50;1.00;;;;;;5027697;28;20217;-60
2020/12/16 04:05:08;;;;;;;33.73;21.17;;;6.50;1.00;;;;;;5028090;28;20207;-59
2020/12/16 04:07:34;;;;;;;30.97;20.50;;;6.50;1.00;;;;;;5023542;28;20195;-59
2020/12/16 04:10:00;;;;;;;33.97;21.70;;;6.50;1.00;;;;;;5025748;28;20213;-59
2020/12/16 04:12:26;;;;;;;36.87;21.43;;;6.40;1.00;;;;;;5028320;28;20191;-55
2020/12/16 04:14:52;;;;;;;33.88;22.10;;;6.40;1.00;;;;;;5028177;28;20207;-58
2020/12/16 04:17:18;;;;;;;33.45;20.77;;;6.40;1.00;;;;;;5027376;28;20195;-59
2020/12/16 04:19:44;;;;;;;33.30;20.90;;;6.40;1.00;;;;;;5027668;28;20180;-58
2020/12/16 04:22:09;;;;;;;35.53;23.17;;;6.40;1.00;;;;;;5027301;28;20187;-59
2020/12/16 04:24:35;;;;;;;33.33;20.50;;;6.40;1.00;;;;;;5032462;28;20534;-59
2020/12/16 04:27:01;;;;;;;34.70;21.10;;;6.40;1.00;;;;;;5024942;28;20194;-59
2020/12/16 04:29:26;;;;;;;32.03;22.50;;;6.50;1.00;;;;;;5020988;28;20193;-60
2020/12/16 04:31:53;;;;;;;33.30;22.23;;;6.50;1.00;;;;;;5039807;28;20210;-59
2020/12/16 04:34:19;;;;;;;34.38;21.63;;;6.50;1.00;;;;;;5037800;28;20175;-59
2020/12/16 04:36:49;;;;;;;32.30;21.40;;;6.50;1.00;;;;;;5032186;28;20214;-59
2020/12/16 04:39:17;;;;;;;31.08;21.52;;;6.50;1.00;;;;;;5031380;28;20190;-59
2020/12/16 04:41:43;;;;;;;32.72;21.77;;;6.50;1.00;;;;;;5031170;28;20302;-58
2020/12/16 04:44:11;;;;;;;30.25;19.92;;;6.50;1.00;;;;;;5037040;28;20726;-58
2020/12/16 04:46:40;;;;;;;30.67;20.73;;;6.50;1.00;;;;;;5050600;28;20553;-59
2020/12/16 04:49:09;;;;;;;33.10;21.20;;;6.50;1.00;;;;;;5050841;28;20256;-60
2020/12/16 04:51:39;;;;;;;30.92;20.67;;;6.60;1.00;;;;;;5050087;28;20639;-60
2020/12/16 04:54:05;;;;;;;32.83;21.45;;;6.60;1.00;;;;;;5052654;28;20189;-58
2020/12/16 04:56:33;;;;;;;35.55;22.45;;;6.60;1.00;;;;;;5052565;28;20251;-59
2020/12/16 04:58:59;;;;;;;34.78;21.23;;;6.50;1.00;;;;;;5050401;28;20274;-59
2020/12/16 05:01:25;;;;;;;33.30;21.65;;;6.50;1.00;;;;;;5048559;28;20154;-59
2020/12/16 05:03:50;;;;;;;35.13;21.93;;;6.50;1.00;;;;;;5053921;28;20206;-59
2020/12/16 05:06:45;;;;;;;37.10;21.87;;;6.60;1.00;;;;;;5050928;28;20198;-59
2020/12/16 05:09:13;;;;;;;31.63;21.05;;;6.60;1.00;;;;;;5042227;28;20848;-60
2020/12/16 05:11:49;;;;;;;33.08;21.10;;;6.60;1.00;;;;;;5049894;28;20182;-60
2020/12/16 05:14:23;;;;;;;35.80;22.02;;;6.60;1.00;;;;;;5039068;28;20186;-55
2020/12/16 05:16:52;;;;;;;37.47;22.45;;;6.60;1.00;;;;;;5039863;28;20197;-57
2020/12/16 05:19:40;;;;;;;35.95;23.08;;;6.60;1.00;;;;;;5024030;28;20201;-58
2020/12/16 05:22:20;;;;;;;35.08;23.33;;;6.50;1.00;;;;;;5041262;28;20223;-56
2020/12/16 05:24:48;;;;;;;34.80;21.85;;;6.50;1.00;;;;;;5042748;28;20288;-59
2020/12/16 05:27:23;;;;;;;33.15;22.40;;;6.50;1.00;;;;;;5036748;28;20652;-58
2020/12/16 05:30:00;;;;;;;36.95;22.17;;;6.50;1.00;;;;;;5041081;28;20188;-59
2020/12/16 05:32:28;;;;;;;35.42;22.60;;;6.50;1.00;;;;;;5041881;28;20850;-57
2020/12/16 05:34:56;;;;;;;36.00;22.65;;;6.50;1.00;;;;;;5041284;28;20213;-59
2020/12/16 05:37:35;;;;;;;35.75;22.77;;;6.50;1.00;;;;;;5041330;28;20512;-58
2020/12/16 05:40:04;;;;;;;52.03;37.92;;;6.50;1.00;;;;;;5036187;28;20185;-56
2020/12/16 05:42:30;;;;;;;40.25;24.85;;;6.50;1.00;;;;;;5044814;28;20221;-59
2020/12/16 05:45:07;;;;;;;36.90;22.23;;;6.40;1.00;;;;;;5050272;28;20261;-58
2020/12/16 05:47:33;;;;;;;35.83;23.00;;;6.40;1.00;;;;;;5045888;28;20527;-57
2020/12/16 05:49:59;;;;;;;37.83;22.80;;;6.50;1.00;;;;;;5050470;28;20185;-57
2020/12/16 05:52:24;;;;;;;35.40;21.43;;;6.50;1.00;;;;;;5050742;28;20957;-57
2020/12/16 05:54:52;;;;;;;33.50;21.13;;;6.50;1.00;;;;;;5050601;28;20202;-57
2020/12/16 05:57:20;;;;;;;32.55;20.98;;;6.50;1.00;;;;;;5050797;28;20163;-58
2020/12/16 06:00:08;;;;;;;32.90;21.15;;;6.60;1.00;;;;;;5055271;28;20177;-58
2020/12/16 06:02:44;;;;;;;33.30;21.70;;;6.50;1.00;;;;;;5058727;28;20258;-58
2020/12/16 06:05:13;;;;;;;36.40;23.40;;;6.50;1.00;;;;;;5050123;28;20194;-57
2020/12/16 06:07:44;;;;;;;36.22;21.92;;;6.50;1.00;;;;;;5050025;28;20242;-57
2020/12/16 06:10:10;;;;;;;37.38;23.88;;;6.50;1.00;;;;;;5049973;28;20178;-56
2020/12/16 06:12:44;;;;;;;35.92;23.50;;;6.50;1.00;;;;;;5050653;28;20743;-58
2020/12/16 06:15:11;;;;;;;36.28;22.42;;;6.50;1.00;;;;;;5049938;28;20201;-57
2020/12/16 06:17:42;;;;;;;35.80;23.85;;;6.40;1.00;;;;;;5050122;28;20186;-57
2020/12/16 06:20:14;;;;;;;36.00;23.40;;;6.40;1.00;;;;;;5049818;28;20858;-56
2020/12/16 06:22:42;;;;;;;35.97;23.08;;;6.30;1.00;;;;;;5048013;28;20376;-56
2020/12/16 06:25:09;;;;;;;33.10;22.48;;;6.30;1.00;;;;;;5044297;28;20201;-57
2020/12/16 06:27:46;;;;;;;40.58;24.70;;;6.30;1.00;;;;;;5048085;28;20178;-58
2020/12/16 06:30:31;;;;;;;34.90;23.10;;;6.30;1.00;;;;;;5049245;28;20188;-59
2020/12/16 06:33:12;;;;;;;36.08;22.48;;;6.30;1.00;;;;;;5032205;28;20315;-59
2020/12/16 06:35:39;;;;;;;34.95;22.45;;;6.30;1.00;;;;;;5047738;28;20264;-58
2020/12/16 06:38:20;;;;;;;36.10;22.45;;;6.30;1.00;;;;;;5048650;28;20449;-59
2020/12/16 06:40:48;;;;;;;34.78;22.63;;;6.30;1.00;;;;;;5042378;28;20985;-54
2020/12/16 06:43:31;;;;;;;37.70;23.70;;;6.30;1.00;;;;;;5048851;28;20982;-56
2020/12/16 06:45:58;;;;;;;39.50;24.75;;;6.30;1.00;;;;;;5007887;28;20199;-56
2020/12/16 06:48:33;;;;;;;37.03;22.60;;;6.30;1.00;;;;;;5040542;28;20199;-59
2020/12/16 06:51:20;;;;;;;38.75;23.10;;;6.30;1.00;;;;;;5007079;28;20696;-58
2020/12/16 06:53:47;;;;;;;38.17;23.58;;;6.30;1.00;;;;;;5008695;28;20257;-58
2020/12/16 06:56:19;;;;;;;35.60;21.75;;;6.30;1.00;;;;;;5008657;28;20603;-57
2020/12/16 06:58:45;;;;;;;39.42;24.33;;;6.30;1.00;;;;;;4998491;28;20270;-58
2020/12/16 07:01:18;;;;;;;37.53;23.10;;;6.30;1.00;;;;;;5008497;28;20258;-58
2020/12/16 07:03:44;;;;;;;35.30;22.80;;;6.20;1.00;;;;;;5008730;28;20191;-57
2020/12/16 07:06:11;;;;;;;36.13;23.10;;;6.20;1.00;;;;;;5004960;28;20558;-58
2020/12/16 07:08:38;;;;;;;32.78;22.10;;;6.20;1.00;;;;;;4996297;28;20187;-57
2020/12/16 07:11:04;;;;;;;35.17;21.40;;;6.20;1.00;;;;;;5008662;28;20191;-56
2020/12/16 07:13:34;;;;;;;37.20;23.85;;;6.20;1.00;;;;;;5005047;28;20211;-58
2020/12/16 07:16:12;;;;;;;37.25;22.80;;;6.20;1.00;;;;;;5008189;28;20203;-58
2020/12/16 07:18:48;;;;;;;37.20;22.45;;;6.20;1.00;;;;;;5032322;28;20175;-59
2020/12/16 07:21:21;;;;;;;33.13;21.98;;;6.20;1.00;;;;;;5008064;28;20184;-58
2020/12/16 07:24:13;;;;;;;41.22;22.85;;;6.30;1.00;;;;;;5008405;28;20510;-58
2020/12/16 07:26:48;;;;;;;38.83;23.10;;;6.30;1.00;;;;;;5007811;28;20187;-58
2020/12/16 07:29:34;;;;;;;35.63;22.58;;;6.30;1.00;;;;;;5007270;28;20274;-58
2020/12/16 07:32:13;;;;;;;37.05;22.58;;;6.30;1.00;;;;;;5019773;28;20229;-57
2020/12/16 07:34:42;;;;;;;35.72;21.30;;;6.30;1.00;;;;;;5000645;28;20642;-58
2020/12/16 07:37:08;;;;;;;38.08;22.63;;;6.30;1.00;;;;;;5004689;28;20187;-58
2020/12/16 07:39:44;;;;;;;33.53;21.55;;;6.30;1.00;;;;;;5008242;28;20246;-59
2020/12/16 07:42:10;;;;;;;35.58;21.85;;;6.40;1.00;;;;;;4998749;28;20242;-59
2020/12/16 07:44:43;;;;;;;35.80;22.42;;;6.40;1.00;;;;;;5030418;28;20236;-59
2020/12/16 07:47:09;;;;;;;36.15;22.40;;;6.40;1.00;;;;;;5049784;28;20183;-59
2020/12/16 07:49:38;;;;;;;36.60;21.67;;;6.40;1.00;;;;;;5063381;28;20185;-58
2020/12/16 07:52:04;;;;;;;35.70;23.33;;;6.40;1.00;;;;;;5058645;28;20182;-58
2020/12/16 07:54:30;;;;;;;33.23;21.67;;;6.40;1.00;;;;;;5051479;28;20737;-57
2020/12/16 07:56:56;;;;;;;33.25;21.35;;;6.40;1.00;;;;;;5053416;28;20206;-58
2020/12/16 07:59:27;;;;;;;44.13;31.47;;;6.50;1.00;;;;;;5052723;28;20255;-58
2020/12/16 08:02:02;;;;;;;38.45;23.10;;;6.50;1.00;;;;;;5060159;28;20440;-58
2020/12/16 08:04:28;;;;;;;36.88;23.33;;;6.50;1.00;;;;;;5045814;28;20976;-57
2020/12/16 08:06:53;;;;;;;37.47;22.03;;;6.50;1.00;;;;;;5058271;28;20277;-59
2020/12/16 08:09:22;;;;;;;33.93;21.77;;;6.50;1.00;;;;;;5061245;28;21066;-57
2020/12/16 08:11:48;;;;;;;35.47;21.70;;;6.60;1.00;;;;;;5054262;28;20598;-58
2020/12/16 08:14:13;;;;;;;34.60;22.20;;;6.50;1.00;;;;;;5062850;28;20254;-59
2020/12/16 08:16:39;;;;;;;35.27;20.83;;;6.60;1.00;;;;;;5060468;28;20281;-58
2020/12/16 08:19:05;;;;;;;34.63;21.67;;;6.60;1.00;;;;;;5064800;28;20178;-59
2020/12/16 08:21:31;;;;;;;35.60;21.53;;;6.70;1.00;;;;;;5060152;28;20327;-58
2020/12/16 08:23:57;;;;;;;38.33;23.83;;;6.70;1.00;;;;;;5060462;28;20300;-57
2020/12/16 08:26:25;;;;;;;33.10;20.40;;;6.70;1.00;;;;;;5059244;28;20271;-58
2020/12/16 08:28:51;;;;;;;37.65;21.70;;;6.80;1.00;;;;;;5050600;28;20186;-58
2020/12/16 08:31:22;;;;;;;32.72;19.63;;;6.90;1.00;;;;;;5055717;28;20218;-60
2020/12/16 08:33:49;;;;;;;32.17;20.77;;;6.90;1.00;;;;;;5050445;28;20229;-57
2020/12/16 08:36:19;;;;;;;34.97;21.77;;;6.90;1.00;;;;;;5050639;28;20252;-61
2020/12/16 08:38:47;;;;;;;39.22;21.85;;;6.90;1.00;;;;;;5050057;28;20254;-57
2020/12/16 08:41:22;;;;;;;34.35;20.30;;;6.90;1.00;;;;;;5049952;28;20186;-58
2020/12/16 08:43:48;;;;;;;32.58;21.13;;;6.90;1.00;;;;;;5050069;28;20214;-57
2020/12/16 08:46:23;;;;;;;32.37;19.43;;;6.90;1.00;;;;;;5050206;28;20241;-58
2020/12/16 08:49:01;;;;;;;35.63;20.45;;;6.90;1.00;;;;;;5049980;28;20183;-58
2020/12/16 08:51:32;;;;;;;35.40;21.67;;;7.00;1.00;;;;;;5036972;28;20313;-60
2020/12/16 08:54:00;;;;;;;35.05;21.65;;;7.00;1.00;;;;;;5048658;28;20207;-60
2020/12/16 08:56:28;;;;;;;33.72;21.52;;;7.00;1.00;;;;;;5052227;28;20212;-59
2020/12/16 08:59:06;;;;;;;33.55;21.75;;;7.00;1.00;;;;;;5053470;28;20179;-59
2020/12/16 09:01:33;;;;;;;34.80;20.13;;;7.00;1.00;;;;;;5057966;28;20172;-62
2020/12/16 09:03:59;;;;;;;34.92;21.00;;;7.00;1.00;;;;;;5054051;28;20171;-58
2020/12/16 09:06:25;;;;;;;36.45;22.00;;;7.00;1.00;;;;;;5036390;28;20206;-60
2020/12/16 09:08:51;;;;;;;35.50;20.93;;;7.10;1.00;;;;;;5052229;28;20192;-60
2020/12/16 09:11:21;;;;;;;35.13;21.83;;;7.10;1.00;;;;;;5061153;28;20297;-61
2020/12/16 09:13:48;;;;;;;33.10;19.73;;;7.10;1.00;;;;;;5048880;28;20194;-59
2020/12/16 09:16:22;;;;;;;37.50;22.27;;;7.20;1.00;;;;;;5049668;28;20247;-59
2020/12/16 09:18:48;;;;;;;35.78;22.13;;;7.20;1.00;;;;;;5063115;28;20179;-62
2020/12/16 09:21:31;;;;;;;36.97;20.98;;;7.20;1.00;;;;;;5049173;28;20195;-64
2020/12/16 09:23:57;;;;;;;33.95;21.02;;;7.30;1.00;;;;;;5048708;28;20211;-60
2020/12/16 09:26:55;;;;;;;36.80;21.13;;;7.30;1.00;;;;;;5048886;28;20238;-62
2020/12/16 09:29:28;;;;;;;37.33;21.90;;;7.30;1.00;;;;;;5015304;28;20227;-62
2020/12/16 09:32:07;;;;;;;34.97;21.50;;;7.40;1.00;;;;;;5048815;28;20509;-61
2020/12/16 09:34:45;;;;;;;33.10;21.63;;;7.40;1.00;;;;;;5048598;28;20367;-61
2020/12/16 09:37:25;;;;;;;37.38;21.70;;;7.40;1.00;;;;;;5048169;28;20418;-61
2020/12/16 09:40:08;;;;;;;35.83;22.58;;;7.40;1.00;;;;;;5048687;28;20188;-60
2020/12/16 09:42:34;;;;;;;35.25;22.02;;;7.40;1.00;;;;;;5048008;28;20241;-60
2020/12/16 09:45:15;;;;;;;34.40;21.97;;;7.40;1.00;;;;;;5048573;28;20347;-60
2020/12/16 09:47:45;;;;;;;38.33;22.60;;;7.30;1.00;;;;;;5054433;28;20691;-62
2020/12/16 09:50:11;;;;;;;33.13;21.55;;;7.30;1.00;;;;;;5055426;28;20213;-60
2020/12/16 09:52:39;;;;;;;36.67;22.83;;;7.40;1.00;;;;;;5044626;28;20190;-60
2020/12/16 09:55:16;;;;;;;35.13;22.53;;;7.40;1.00;;;;;;5045015;28;20616;-60
2020/12/16 09:57:43;;;;;;;35.70;22.08;;;7.50;1.00;;;;;;5048004;28;20417;-60
2020/12/16 10:00:10;;;;;;;34.73;21.43;;;7.60;1.00;;;;;;5030212;28;20180;-61
2020/12/16 10:02:36;;;;;;;37.60;22.83;;;7.70;1.00;;;;;;5052545;28;20419;-60
2020/12/16 10:05:03;;;;;;;35.73;22.87;;;8.00;1.00;;;;;;5047931;28;20482;-61
2020/12/16 10:07:33;;;;;;;33.80;23.27;;;8.40;1.00;;;;;;5047991;28;20703;-60
2020/12/16 10:09:58;;;;;;;36.27;21.60;;;8.90;1.00;;;;;;5048066;28;20431;-60
2020/12/16 10:12:24;;;;;;;29.77;21.57;;;9.40;1.00;;;;;;5047722;28;20915;-61
2020/12/16 10:14:51;;;;;;;30.97;20.30;;;10.00;99.90;;;;;;5047960;28;20292;-62
2020/12/16 10:17:21;;;;;;;33.27;22.73;;;10.50;99.90;;;;;;5048352;28;20243;-61
2020/12/16 10:19:48;;;;;;;30.77;21.40;;;10.70;1.00;;;;;;5048244;28;20439;-60
2020/12/16 10:22:13;;;;;;;32.50;21.47;;;11.00;99.90;;;;;;5029685;28;20946;-61
2020/12/16 10:24:39;;;;;;;32.27;21.73;;;11.30;1.00;;;;;;5047916;28;20423;-57
2020/12/16 10:27:04;;;;;;;29.47;21.00;;;11.10;1.00;;;;;;5047370;28;20261;-62
2020/12/16 10:29:30;;;;;;;33.37;21.97;;;11.00;1.00;;;;;;5047447;28;20243;-62
2020/12/16 10:31:56;;;;;;;32.53;22.10;;;11.10;1.00;;;;;;5047722;28;20220;-59
2020/12/16 10:34:21;;;;;;;31.73;20.40;;;11.30;1.00;;;;;;5047681;28;20178;-63
2020/12/16 10:36:51;;;;;;;26.33;20.33;;;11.50;1.00;;;;;;5048008;28;20255;-63
2020/12/16 10:39:17;;;;;;;28.87;20.70;;;11.60;99.90;;;;;;5047590;28;20346;-63
2020/12/16 10:41:47;;;;;;;31.73;21.60;;;11.60;99.90;;;;;;5048163;28;20837;-62
2020/12/16 10:44:13;;;;;;;31.37;21.10;;;11.40;99.90;;;;;;5047446;28;20970;-61
2020/12/16 10:46:43;;;;;;;34.57;22.57;;;10.90;1.00;;;;;;5047666;28;20426;-61
2020/12/16 10:49:09;;;;;;;27.37;20.70;;;10.40;99.90;;;;;;5048047;28;20188;-60
2020/12/16 10:51:34;;;;;;;34.73;21.60;;;10.00;1.00;;;;;;5049543;28;20420;-59
2020/12/16 10:54:00;;;;;;;30.47;22.07;;;9.60;99.90;;;;;;5047439;28;20190;-60
2020/12/16 10:56:26;;;;;;;34.90;22.10;;;9.30;1.00;;;;;;5047303;28;20290;-63
2020/12/16 10:58:51;;;;;;;32.70;20.37;;;9.10;1.00;;;;;;5047864;28;20184;-61
2020/12/16 11:01:17;;;;;;;31.67;20.60;;;8.80;1.00;;;;;;5047564;28;20201;-60
2020/12/16 11:03:43;;;;;;;32.27;21.10;;;8.70;1.00;;;;;;5047824;28;20182;-60
2020/12/16 11:06:09;;;;;;;35.03;22.13;;;8.60;99.90;;;;;;5046137;28;20189;-60
2020/12/16 11:08:34;;;;;;;34.90;21.27;;;8.50;99.90;;;;;;5047710;28;20933;-59
2020/12/16 11:11:00;;;;;;;33.43;20.90;;;8.60;99.90;;;;;;5047588;28;20541;-59
2020/12/16 11:13:26;;;;;;;29.90;21.20;;;8.70;99.90;;;;;;5047438;28;20207;-60
2020/12/16 11:15:52;;;;;;;33.40;21.70;;;8.80;99.90;;;;;;5049384;28;20206;-60
2020/12/16 11:18:17;;;;;;;31.97;22.13;;;8.90;99.90;;;;;;5056419;28;20211;-59
2020/12/16 11:20:43;;;;;;;31.33;20.30;;;9.10;1.00;;;;;;5043636;28;20919;-58
2020/12/16 11:23:08;;;;;;;29.77;20.70;;;9.30;1.00;;;;;;5046908;28;20189;-59
2020/12/16 11:25:34;;;;;;;31.80;20.90;;;9.60;1.00;;;;;;5047516;28;20272;-60
2020/12/16 11:28:00;;;;;;;32.70;21.17;;;9.70;99.90;;;;;;5043251;28;20185;-59
2020/12/16 11:30:25;;;;;;;29.43;20.13;;;10.10;99.90;;;;;;5047286;28;20593;-60
2020/12/16 11:32:51;;;;;;;28.77;19.70;;;10.60;99.90;;;;;;5047294;28;20193;-60
2020/12/16 11:35:17;;;;;;;29.40;20.80;;;11.00;99.90;;;;;;5046507;28;20285;-60
2020/12/16 11:37:44;;;;;;;26.90;19.73;;;11.50;1.00;;;;;;5040230;28;20878;-60
2020/12/16 11:40:11;;;;;;;28.20;20.23;;;12.10;99.90;;;;;;5051474;28;20183;-59
2020/12/16 11:42:36;;;;;;;27.60;19.90;;;12.60;1.00;;;;;;5050256;28;20464;-59
2020/12/16 11:45:05;;;;;;;25.30;18.50;;;13.10;1.00;;;;;;5050989;28;20498;-59
2020/12/16 11:47:31;;;;;;;27.10;20.33;;;13.60;1.00;;;;;;5050006;28;20641;-59
2020/12/16 11:49:56;;;;;;;25.40;18.73;;;13.80;1.00;;;;;;5051034;28;20480;-59
2020/12/16 11:52:22;;;;;;;24.13;18.00;;;13.80;1.00;;;;;;5062118;28;20537;-59
2020/12/16 11:54:48;;;;;;;23.70;18.27;;;13.90;1.00;;;;;;5051298;28;20221;-58
2020/12/16 11:57:13;;;;;;;25.07;18.77;;;14.20;1.00;;;;;;5040345;28;20191;-59
2020/12/16 11:59:39;;;;;;;22.60;17.40;;;14.10;1.00;;;;;;5051397;28;20292;-57
2020/12/16 12:02:06;;;;;;;19.63;16.87;;;14.00;99.90;;;;;;5050251;28;20593;-59
2020/12/16 12:04:32;;;;;;;21.83;16.33;;;14.20;99.90;;;;;;5050704;28;20179;-58
2020/12/16 12:06:58;;;;;;;20.20;16.50;;;14.30;99.90;;;;;;5049466;28;20467;-58
2020/12/16 12:09:24;;;;;;;21.47;16.70;;;14.40;99.90;;;;;;5049751;28;20434;-59
2020/12/16 12:11:53;;;;;;;21.33;16.03;;;14.30;99.90;;;;;;5050585;28;20962;-60
2020/12/16 12:14:20;;;;;;;22.60;18.10;;;14.20;99.90;;;;;;5044010;28;20437;-59
2020/12/16 12:16:50;;;;;;;23.57;17.53;;;13.80;99.90;;;;;;5041002;28;20483;-60
2020/12/16 12:19:15;;;;;;;23.80;17.27;;;14.10;99.90;;;;;;5050398;28;20440;-58
2020/12/16 12:21:41;;;;;;;17.73;15.77;;;14.10;99.90;;;;;;5049749;28;20428;-60
2020/12/16 12:24:07;;;;;;;21.87;16.37;;;13.90;99.90;;;;;;5047261;28;20186;-61
2020/12/16 12:26:33;;;;;;;21.80;16.97;;;14.00;99.90;;;;;;5050828;28;20189;-60
2020/12/16 12:28:59;;;;;;;19.97;16.37;;;14.20;99.90;;;;;;5050914;28;20191;-60
2020/12/16 12:31:25;;;;;;;21.50;17.10;;;14.40;99.90;;;;;;5050390;28;21097;-60
2020/12/16 12:33:50;;;;;;;20.63;17.00;;;14.30;99.90;;;;;;5050409;28;20174;-59
2020/12/16 12:36:16;;;;;;;20.47;16.53;;;13.90;99.90;;;;;;5051066;28;20205;-59
2020/12/16 12:38:41;;;;;;;21.77;17.83;;;13.80;99.90;;;;;;5050423;28;20231;-60
2020/12/16 12:41:07;;;;;;;20.57;16.70;;;13.90;99.90;;;;;;5051115;28;20182;-60
2020/12/16 12:43:34;;;;;;;19.80;15.80;;;13.80;99.90;;;;;;5051402;28;20189;-58
2020/12/16 12:46:00;;;;;;;21.67;16.43;;;13.70;99.90;;;;;;5050889;28;20182;-60
2020/12/16 12:48:25;;;;;;;20.10;16.90;;;13.70;99.90;;;;;;5050519;28;20431;-60